Time;durP1;ratioP1;P1;durP2;ratioP2;P2;SDS_P1;SDS_P2;PMS_P1;PMS_P2;Temp;Humidity;BMP_temperature;BMP_pressure;BME280_temperature;BME280_humidity;BME280_pressure;Samples;Min_cycle;Max_cycle;Signal;HPM_P1;HPM_P2
2024/02/26 00:05:02;;;;;;;4.00;2.97;;;5.20;99.90;;;5.81;93.44;96065.38;10294027;28;20243;-65
2024/02/26 00:10:08;;;;;;;3.90;3.60;;;5.20;99.90;;;5.97;93.72;96076.25;10295251;28;20235;-66
2024/02/26 00:15:11;;;;;;;3.97;3.67;;;5.20;99.90;;;5.90;94.62;96070.00;10289608;28;20238;-65
2024/02/26 00:20:15;;;;;;;3.67;3.43;;;5.20;99.90;;;5.83;95.06;96073.03;10298197;28;20580;-66
2024/02/26 00:25:19;;;;;;;3.97;3.60;;;5.10;99.90;;;5.88;94.31;96092.72;10295636;28;20235;-66
2024/02/26 00:30:23;;;;;;;4.00;3.60;;;5.10;99.90;;;5.76;95.14;96082.03;10291301;28;20246;-66
2024/02/26 00:35:26;;;;;;;3.63;3.33;;;5.00;99.90;;;5.77;93.92;96088.81;10294149;28;20242;-66
2024/02/26 00:40:31;;;;;;;3.50;3.20;;;5.10;99.90;;;5.85;95.02;96081.59;10290892;28;20294;-66
2024/02/26 00:45:34;;;;;;;3.63;3.30;;;5.10;99.90;;;5.81;93.42;96074.66;10296246;28;20237;-67
2024/02/26 00:50:37;;;;;;;2.60;2.50;;;5.10;99.90;;;5.92;93.69;96087.78;10289892;28;20326;-65
2024/02/26 00:55:42;;;;;;;3.27;2.97;;;5.20;99.90;;;5.82;95.02;96082.31;10292797;28;22334;-64
2024/02/26 01:00:45;;;;;;;3.23;3.03;;;5.20;99.90;;;5.84;94.26;96072.25;10305544;22;20228;-67
2024/02/26 01:05:49;;;;;;;3.10;2.90;;;5.10;99.90;;;5.97;90.64;96071.16;10360568;28;20241;-64
2024/02/26 01:10:53;;;;;;;2.70;2.60;;;5.20;99.90;;;5.90;87.90;96059.00;10356950;28;20230;-64
2024/02/26 01:15:56;;;;;;;2.90;2.70;;;5.20;99.90;;;6.17;86.21;96054.31;10335671;28;20237;-63
2024/02/26 01:21:00;;;;;;;2.90;2.70;;;5.40;99.90;;;6.03;90.02;96076.50;10333015;28;20240;-63
2024/02/26 01:26:05;;;;;;;3.20;3.00;;;5.30;99.90;;;5.83;92.70;96057.81;10330144;28;20759;-65
2024/02/26 01:31:08;;;;;;;3.70;3.50;;;5.20;99.90;;;5.80;93.42;96065.28;10342291;28;20241;-64
2024/02/26 01:36:11;;;;;;;3.83;3.53;;;5.10;99.90;;;5.85;94.93;96061.31;10340410;28;20257;-66
2024/02/26 01:41:16;;;;;;;4.00;3.30;;;5.10;99.90;;;5.81;95.85;96070.44;10346869;28;20249;-65
2024/02/26 01:46:19;;;;;;;3.47;3.00;;;5.10;99.90;;;5.81;95.41;96067.91;10340592;28;20226;-65
2024/02/26 01:51:24;;;;;;;2.87;2.67;;;5.10;99.90;;;5.88;93.19;96056.38;10341129;28;20234;-64
2024/02/26 01:56:31;;;;;;;3.47;3.17;;;5.10;99.90;;;6.24;85.51;96044.50;10338562;28;20253;-67
2024/02/26 02:01:35;;;;;;;3.27;3.00;;;5.50;99.90;;;6.53;89.11;96055.06;10338801;28;20242;-66
2024/02/26 02:06:39;;;;;;;2.90;2.70;;;5.60;99.90;;;6.28;89.40;96064.13;10344594;28;20222;-66
2024/02/26 02:11:44;;;;;;;3.73;3.40;;;5.50;99.90;;;5.92;91.17;96062.44;10343533;28;20238;-63
2024/02/26 02:16:48;;;;;;;3.20;3.00;;;5.20;99.90;;;5.84;91.42;96069.72;10340408;28;20242;-65
2024/02/26 02:21:53;;;;;;;3.83;3.60;;;5.10;99.90;;;5.88;92.48;96071.59;10343162;28;20238;-65
2024/02/26 02:26:56;;;;;;;3.80;3.60;;;5.20;99.90;;;5.90;92.00;96072.53;10337753;28;20222;-66
2024/02/26 02:32:02;;;;;;;3.40;3.20;;;5.20;99.90;;;5.94;90.48;96086.25;10341299;28;20320;-66
2024/02/26 02:37:06;;;;;;;2.87;2.67;;;5.20;99.90;;;5.96;91.06;96082.13;10330094;28;20233;-64
2024/02/26 02:42:10;;;;;;;3.40;3.20;;;5.30;99.90;;;6.05;90.85;96091.00;10329159;28;20235;-65
2024/02/26 02:47:13;;;;;;;3.07;2.87;;;5.30;99.90;;;6.15;90.94;96096.47;10339806;28;20230;-64
2024/02/26 02:52:18;;;;;;;3.80;3.17;;;5.40;99.90;;;6.04;93.34;96104.50;10342909;28;20241;-62
2024/02/26 02:57:21;;;;;;;3.70;3.40;;;5.30;99.90;;;6.09;92.73;96108.13;10336986;28;20237;-66
2024/02/26 03:02:24;;;;;;;2.60;2.50;;;5.30;99.90;;;6.10;92.97;96114.03;10336430;28;20231;-65
2024/02/26 03:07:29;;;;;;;2.80;2.60;;;5.30;99.90;;;6.06;92.21;96091.84;10332671;28;20230;-64
2024/02/26 03:12:34;;;;;;;2.50;2.40;;;5.30;99.90;;;6.14;91.21;96110.84;10336982;28;20230;-62
2024/02/26 03:17:37;;;;;;;3.13;2.83;;;5.40;99.90;;;5.80;93.94;96113.44;10339676;28;20637;-65
2024/02/26 03:22:42;;;;;;;3.30;3.10;;;5.20;99.90;;;5.74;94.92;96119.09;10342109;28;20238;-62
2024/02/26 03:27:45;;;;;;;3.20;3.00;;;5.20;99.90;;;5.74;94.85;96116.56;10342624;28;20615;-62
2024/02/26 03:32:48;;;;;;;2.93;2.73;;;5.20;99.90;;;5.85;96.20;96117.06;10338641;28;20226;-63
2024/02/26 03:37:53;;;;;;;3.30;3.00;;;5.20;99.90;;;5.87;96.45;96121.44;10339057;28;20222;-63
2024/02/26 03:42:57;;;;;;;2.43;2.33;;;5.20;99.90;;;5.99;95.38;96130.44;10337353;28;20618;-68
2024/02/26 03:48:00;;;;;;;2.87;2.67;;;5.30;99.90;;;5.91;94.85;96126.63;10340068;28;20226;-67
2024/02/26 03:53:05;;;;;;;3.90;3.00;;;5.30;99.90;;;5.86;95.07;96124.72;10337018;28;20789;-65
2024/02/26 03:58:08;;;;;;;3.27;3.07;;;5.20;99.90;;;5.90;96.67;96125.78;10336544;28;20733;-66
2024/02/26 04:03:12;;;;;;;3.40;3.20;;;5.20;99.90;;;5.73;96.14;96109.78;10338955;28;20232;-63
2024/02/26 04:08:16;;;;;;;3.20;3.00;;;5.20;99.90;;;5.50;98.38;96117.94;10337535;28;20258;-65
2024/02/26 04:13:19;;;;;;;3.43;3.23;;;5.00;99.90;;;5.77;97.93;96108.25;10339419;28;20246;-64
2024/02/26 04:18:22;;;;;;;4.20;3.90;;;5.30;99.90;;;5.92;99.79;96125.81;10337126;28;21006;-65
2024/02/26 04:23:27;;;;;;;3.37;3.17;;;5.30;99.90;;;5.54;100.00;96129.97;10338259;28;20677;-65
2024/02/26 04:28:30;;;;;;;4.07;3.77;;;5.10;99.90;;;5.47;100.00;96123.75;10336653;28;20226;-64
2024/02/26 04:33:35;;;;;;;3.90;3.60;;;5.00;99.90;;;5.32;100.00;96121.34;10335943;28;20736;-62
2024/02/26 04:38:40;;;;;;;3.50;3.20;;;5.00;99.90;;;5.31;100.00;96104.38;10338185;28;20226;-65
2024/02/26 04:43:43;;;;;;;3.40;3.20;;;5.00;99.90;;;5.33;100.00;96100.28;10334211;28;20439;-63
2024/02/26 04:48:46;;;;;;;3.57;3.37;;;4.90;99.90;;;5.37;100.00;96084.41;10331904;28;20239;-65
2024/02/26 04:53:53;;;;;;;3.47;3.17;;;5.00;99.90;;;5.40;100.00;96087.09;10329881;28;20259;-63
2024/02/26 04:58:56;;;;;;;3.20;3.00;;;5.00;99.90;;;5.47;100.00;96078.13;10326314;28;20319;-63
2024/02/26 05:03:59;;;;;;;3.83;3.57;;;5.00;99.90;;;5.79;100.00;96084.69;10323293;28;20235;-63
2024/02/26 05:09:05;;;;;;;3.90;3.60;;;5.10;99.90;;;5.45;100.00;96078.84;10325483;28;20231;-63
2024/02/26 05:14:08;;;;;;;4.13;3.83;;;5.00;99.90;;;5.21;100.00;96076.88;10330467;28;20235;-64
2024/02/26 05:19:12;;;;;;;3.87;3.63;;;4.90;99.90;;;5.32;100.00;96077.38;10329509;28;20279;-62
2024/02/26 05:24:17;;;;;;;4.00;3.70;;;4.90;99.90;;;5.21;100.00;96079.41;10337696;28;20231;-64
2024/02/26 05:29:21;;;;;;;4.27;3.90;;;4.80;99.90;;;5.18;100.00;96066.63;10341180;28;20234;-64
2024/02/26 05:34:24;;;;;;;4.43;4.03;;;4.80;99.90;;;5.22;100.00;96063.41;10343219;28;20318;-62
2024/02/26 05:39:28;;;;;;;4.47;4.07;;;4.80;99.90;;;5.24;100.00;96077.03;10346181;28;20323;-65
2024/02/26 05:44:31;;;;;;;4.00;3.80;;;4.80;99.90;;;5.34;100.00;96094.41;10340784;28;20245;-64
2024/02/26 05:49:35;;;;;;;6.80;4.40;;;4.80;99.90;;;5.22;100.00;96081.16;10335191;28;20233;-64
2024/02/26 05:54:39;;;;;;;4.70;4.30;;;4.80;99.90;;;5.24;100.00;96089.69;10334735;28;20709;-65
2024/02/26 05:59:42;;;;;;;4.73;4.43;;;4.80;99.90;;;5.30;100.00;96102.66;10338918;28;20613;-62
2024/02/26 06:04:46;;;;;;;8.97;6.50;;;4.90;99.90;;;5.42;100.00;96125.19;10335797;28;20760;-63
2024/02/26 06:09:51;;;;;;;11.50;8.27;;;5.00;99.90;;;5.53;100.00;96156.09;10336191;28;20231;-63
2024/02/26 06:14:54;;;;;;;4.87;4.43;;;5.10;99.90;;;5.54;100.00;96167.97;10341402;28;20222;-63
2024/02/26 06:19:59;;;;;;;4.80;4.40;;;5.10;99.90;;;5.64;100.00;96150.75;10345960;28;20376;-65
2024/02/26 06:25:04;;;;;;;4.83;4.43;;;5.20;99.90;;;5.63;100.00;96155.72;10342254;28;20215;-63
2024/02/26 06:30:10;;;;;;;7.77;6.33;;;5.20;99.90;;;5.64;100.00;96160.03;10344807;28;20250;-64
2024/02/26 06:35:14;;;;;;;9.83;7.97;;;5.20;99.90;;;5.69;100.00;96158.56;10337268;28;20230;-63
2024/02/26 06:40:19;;;;;;;5.43;4.93;;;5.20;99.90;;;5.82;100.00;96165.09;10340610;28;20235;-64
2024/02/26 06:45:23;;;;;;;3.83;3.53;;;5.20;99.90;;;5.72;100.00;96171.38;10342321;28;20231;-67
2024/02/26 06:50:27;;;;;;;4.10;3.80;;;5.20;99.90;;;5.67;100.00;96160.16;10341900;28;20730;-65
2024/02/26 06:55:31;;;;;;;4.07;3.77;;;5.10;99.90;;;5.84;100.00;96169.44;10341190;28;20242;-62
2024/02/26 07:00:34;;;;;;;4.80;4.50;;;5.20;99.90;;;5.69;100.00;96181.38;10342356;28;20273;-66
2024/02/26 07:05:38;;;;;;;4.57;3.90;;;5.10;99.90;;;5.62;100.00;96189.50;10337703;28;20725;-63
2024/02/26 07:10:43;;;;;;;4.13;3.83;;;5.10;99.90;;;5.55;100.00;96192.50;10338408;28;20231;-64
2024/02/26 07:15:46;;;;;;;4.80;4.00;;;5.10;99.90;;;5.62;100.00;96195.41;10338833;28;20231;-63
2024/02/26 07:20:49;;;;;;;4.17;3.87;;;5.10;99.90;;;5.71;100.00;96195.00;10342526;28;20222;-64
2024/02/26 07:25:54;;;;;;;4.43;4.13;;;5.20;99.90;;;5.71;100.00;96194.13;10339498;28;20594;-63
2024/02/26 07:30:57;;;;;;;4.50;4.20;;;5.20;99.90;;;5.77;100.00;96192.75;10337494;28;20230;-67
2024/02/26 07:36:01;;;;;;;4.70;4.30;;;5.30;99.90;;;5.85;100.00;96196.53;10337285;28;20345;-63
2024/02/26 07:41:06;;;;;;;4.77;4.30;;;5.40;99.90;;;5.95;100.00;96209.69;10335398;28;20233;-65
2024/02/26 07:46:12;;;;;;;5.13;4.63;;;5.50;99.90;;;6.16;100.00;96207.31;10337378;28;20723;-64
2024/02/26 07:51:17;;;;;;;5.40;4.90;;;5.60;99.90;;;6.30;100.00;96217.28;10342362;28;20329;-62
2024/02/26 07:56:21;;;;;;;4.63;4.23;;;5.70;99.90;;;6.48;100.00;96209.66;10339443;28;20231;-64
2024/02/26 08:01:26;;;;;;;5.53;4.87;;;5.90;99.90;;;6.74;98.32;96217.59;10340699;28;20573;-65
2024/02/26 08:06:29;;;;;;;5.23;4.80;;;6.10;99.90;;;6.86;98.04;96229.94;10343137;28;20228;-65
2024/02/26 08:11:36;;;;;;;5.07;4.67;;;6.20;99.90;;;6.91;97.58;96236.97;10335064;28;20235;-64
2024/02/26 08:16:39;;;;;;;5.13;4.73;;;6.30;99.90;;;6.94;97.03;96246.41;10336075;28;20762;-64
2024/02/26 08:21:42;;;;;;;5.10;4.60;;;6.40;99.90;;;6.98;97.31;96249.16;10335253;28;20551;-66
2024/02/26 08:26:47;;;;;;;5.70;5.10;;;6.40;99.90;;;7.10;97.75;96251.38;10335268;28;20240;-63
2024/02/26 08:31:50;;;;;;;6.37;5.80;;;6.50;99.90;;;7.20;98.45;96253.50;10335358;28;20294;-67
2024/02/26 08:36:53;;;;;;;5.53;5.03;;;6.60;99.90;;;7.34;98.75;96253.22;10340445;28;20630;-65
2024/02/26 08:41:57;;;;;;;5.40;4.90;;;6.70;99.90;;;7.44;98.43;96253.72;10337436;28;20232;-67
2024/02/26 08:47:00;;;;;;;5.47;5.07;;;6.80;99.90;;;7.57;97.44;96247.44;10339717;28;20223;-65
2024/02/26 08:52:06;;;;;;;6.77;6.17;;;7.00;99.90;;;7.79;96.72;96254.31;10334144;28;20321;-66
2024/02/26 08:57:11;;;;;;;6.70;6.10;;;7.20;99.90;;;7.94;97.31;96250.66;10329922;28;20316;-68
2024/02/26 09:02:14;;;;;;;7.33;6.63;;;7.30;99.90;;;8.03;96.56;96258.66;10335242;28;20694;-68
2024/02/26 09:07:17;;;;;;;6.80;6.30;;;7.40;99.90;;;8.12;95.31;96264.13;10338500;28;20230;-68
2024/02/26 09:12:22;;;;;;;6.47;5.97;;;7.40;99.90;;;8.08;88.34;96267.38;10335186;28;20232;-66
2024/02/26 09:17:25;;;;;;;7.90;7.10;;;7.40;99.90;;;8.11;89.90;96260.72;10333941;28;20245;-67
2024/02/26 09:22:29;;;;;;;7.00;6.40;;;7.50;99.90;;;8.24;85.98;96249.38;10333465;28;20257;-64
2024/02/26 09:27:33;;;;;;;5.23;4.83;;;7.50;99.90;;;8.49;84.65;96255.44;10331767;28;20612;-66
2024/02/26 09:32:36;;;;;;;5.17;4.87;;;7.70;99.90;;;8.60;82.33;96256.72;10331083;28;20241;-65
2024/02/26 09:37:40;;;;;;;5.37;4.90;;;7.90;99.90;;;8.27;83.93;96268.94;10335396;28;20231;-69
2024/02/26 09:42:46;;;;;;;5.50;5.00;;;7.70;99.90;;;8.50;84.83;96268.25;10330011;28;20237;-65
2024/02/26 09:47:50;;;;;;;5.27;4.77;;;7.80;99.90;;;8.51;84.36;96254.69;10335278;28;20218;-67
2024/02/26 09:52:57;;;;;;;5.83;4.50;;;7.90;99.90;;;8.62;85.04;96260.19;10349405;28;20230;-66
2024/02/26 09:58:02;;;;;;;5.20;4.70;;;8.00;99.90;;;8.72;86.90;96261.41;10339411;28;20326;-65
2024/02/26 10:03:07;;;;;;;4.83;4.40;;;8.20;99.90;;;8.91;87.70;96266.41;10341863;28;20524;-68
2024/02/26 10:08:13;;;;;;;5.68;5.18;;;8.30;99.90;;;9.09;85.17;96270.44;10341909;28;20238;-67
2024/02/26 10:13:20;;;;;;;5.47;5.07;;;8.50;99.90;;;9.46;83.85;96263.28;10349049;28;20231;-69
2024/02/26 10:18:24;;;;;;;5.75;5.25;;;8.80;99.90;;;9.77;82.93;96274.56;10340889;28;20800;-66
2024/02/26 10:23:27;;;;;;;6.32;5.68;;;9.10;99.90;;;9.94;82.80;96272.59;10341139;28;20748;-67
2024/02/26 10:28:32;;;;;;;5.53;5.13;;;9.30;99.90;;;9.93;82.90;96281.94;10337713;28;20246;-65
2024/02/26 10:33:36;;;;;;;5.70;5.20;;;9.40;99.90;;;10.12;83.30;96273.19;10339978;28;20230;-67
2024/02/26 10:38:43;;;;;;;5.03;4.63;;;9.60;99.90;;;10.68;79.45;96260.53;10342190;28;20235;-66
2024/02/26 10:43:48;;;;;;;5.68;5.07;;;10.10;99.90;;;10.85;76.57;96252.53;10339837;28;20242;-68
2024/02/26 10:48:52;;;;;;;4.80;4.40;;;10.40;99.90;;;11.13;74.29;96249.94;10340556;28;20219;-66
2024/02/26 10:53:59;;;;;;;4.28;3.88;;;10.70;99.90;;;11.18;69.69;96255.16;10336379;28;20387;-67
2024/02/26 10:59:08;;;;;;;3.63;3.33;;;10.80;99.90;;;11.38;68.63;96251.47;10328510;28;20524;-66
2024/02/26 11:04:12;;;;;;;3.72;3.42;;;11.00;99.90;;;11.35;66.63;96253.94;10331087;28;20227;-66
2024/02/26 11:09:16;;;;;;;4.78;4.38;;;10.90;99.90;;;11.44;68.25;96248.22;10329953;28;20250;-66
2024/02/26 11:14:25;;;;;;;4.40;4.00;;;11.00;99.90;;;11.90;69.50;96250.38;10326372;28;20284;-65
2024/02/26 11:19:31;;;;;;;4.18;3.78;;;11.30;99.90;;;11.90;66.60;96250.38;10331072;28;20249;-68
2024/02/26 11:24:41;;;;;;;4.45;4.05;;;11.40;99.90;;;12.03;67.44;96250.66;10329873;28;20254;-67
2024/02/26 11:29:50;;;;;;;4.03;3.72;;;11.40;99.90;;;12.40;64.32;96250.72;10329267;28;20242;-64
2024/02/26 11:34:55;;;;;;;4.57;4.15;;;11.70;99.90;;;12.52;63.10;96254.41;10336226;28;20315;-64
2024/02/26 11:40:00;;;;;;;4.88;4.18;;;11.80;99.90;;;12.50;61.43;96258.63;10335128;28;20254;-65
2024/02/26 11:45:49;;;;;;;3.78;3.47;;;11.80;99.90;;;12.68;61.16;96242.84;10335696;28;20221;-66
2024/02/26 11:50:54;;;;;;;4.57;3.97;;;12.00;99.90;;;12.71;59.09;96242.91;10332721;28;20235;-66
2024/02/26 11:56:23;;;;;;;4.32;3.92;;;12.00;99.90;;;12.82;63.09;96257.69;10333715;28;20326;-64
2024/02/26 12:01:41;;;;;;;3.72;3.42;;;12.10;99.90;;;13.01;60.39;96261.50;10338006;28;20227;-64
2024/02/26 12:06:48;;;;;;;8.63;7.82;;;12.20;99.90;;;12.89;59.55;96268.06;10334503;28;20231;-67
2024/02/26 12:11:52;;;;;;;16.17;12.73;;;12.10;99.90;;;12.94;57.87;96262.22;10334265;28;20238;-67
2024/02/26 12:16:58;;;;;;;6.85;6.15;;;12.20;99.90;;;13.08;58.52;96268.50;10335437;28;20286;-64
2024/02/26 12:22:01;;;;;;;4.70;4.40;;;12.20;99.90;;;13.14;54.98;96265.22;10335116;28;20732;-65
2024/02/26 12:27:04;;;;;;;3.78;3.58;;;12.30;99.90;;;13.16;54.70;96267.78;10333360;28;20258;-66
2024/02/26 12:32:10;;;;;;;3.17;2.97;;;12.30;99.90;;;13.35;55.39;96269.94;10332377;28;20237;-65
2024/02/26 12:37:13;;;;;;;3.30;3.10;;;12.50;99.90;;;13.21;55.65;96273.88;10337466;28;20231;-66
2024/02/26 12:42:17;;;;;;;3.00;2.80;;;12.50;99.90;;;13.08;55.70;96278.78;10361744;23;20311;-68
2024/02/26 12:47:22;;;;;;;3.45;3.15;;;12.40;99.90;;;13.03;54.66;96282.06;10393407;28;20612;-67
2024/02/26 12:52:25;;;;;;;3.17;2.90;;;12.40;99.90;;;13.12;56.42;96281.41;10378185;28;20230;-67
2024/02/26 12:57:29;;;;;;;2.97;2.78;;;12.40;99.90;;;13.24;56.37;96291.91;10350359;28;20246;-68
2024/02/26 13:02:35;;;;;;;2.63;2.42;;;12.50;99.90;;;13.28;56.75;96292.06;10349686;28;20602;-69
2024/02/26 13:07:42;;;;;;;2.78;2.58;;;12.50;99.90;;;13.40;57.00;96301.72;10347219;28;20245;-69
2024/02/26 13:12:50;;;;;;;3.20;2.90;;;12.60;99.90;;;13.25;56.98;96306.50;10346731;28;20241;-68
2024/02/26 13:17:56;;;;;;;3.03;2.83;;;12.40;99.90;;;13.34;56.81;96311.00;10345520;28;20229;-67
2024/02/26 13:23:04;;;;;;;2.95;2.72;;;12.40;99.90;;;13.39;55.66;96314.50;10344308;28;20262;-67
2024/02/26 13:28:10;;;;;;;3.03;2.83;;;12.60;99.90;;;13.18;55.60;96314.88;10344037;28;20581;-70
2024/02/26 13:33:14;;;;;;;2.90;2.70;;;12.50;99.90;;;13.07;56.66;96305.22;10345054;28;20229;-68
2024/02/26 13:38:18;;;;;;;3.10;2.90;;;12.40;99.90;;;13.12;59.13;96315.59;10343897;28;20261;-68
2024/02/26 13:43:22;;;;;;;2.83;2.60;;;12.30;99.90;;;13.03;58.53;96313.72;10346676;28;20234;-69
2024/02/26 13:48:27;;;;;;;3.67;3.38;;;12.30;99.90;;;13.01;58.04;96317.94;10351148;28;20325;-68
2024/02/26 13:53:30;;;;;;;3.45;3.15;;;12.30;99.90;;;12.99;60.68;96322.19;10355545;28;20345;-68
2024/02/26 13:58:37;;;;;;;3.88;3.30;;;12.20;99.90;;;13.07;60.67;96320.63;10346833;28;20230;-67
2024/02/26 14:03:41;;;;;;;3.30;3.10;;;12.30;99.90;;;13.11;61.17;96313.88;10344630;28;20807;-69
2024/02/26 14:08:44;;;;;;;6.13;5.53;;;12.30;99.90;;;13.24;59.93;96327.84;10343815;28;20226;-69
2024/02/26 14:13:48;;;;;;;4.93;4.38;;;12.40;99.90;;;12.99;59.01;96326.41;10349229;28;20234;-67
2024/02/26 14:18:52;;;;;;;4.20;3.85;;;12.30;99.90;;;12.97;59.45;96326.41;10349289;28;20310;-68
2024/02/26 14:23:56;;;;;;;4.65;4.22;;;12.30;99.90;;;13.08;59.00;96326.66;10351586;28;20724;-70
2024/02/26 14:28:59;;;;;;;4.57;4.10;;;12.30;99.90;;;13.26;59.43;96321.09;10345649;28;20233;-70
2024/02/26 14:34:03;;;;;;;5.47;4.40;;;12.40;99.90;;;13.33;58.50;96329.75;10348986;28;20230;-68
2024/02/26 14:39:07;;;;;;;4.75;4.35;;;12.60;99.90;;;12.94;58.63;96331.47;10358144;28;20276;-68
2024/02/26 14:44:10;;;;;;;5.20;4.00;;;12.40;99.90;;;12.93;59.01;96333.97;10351667;28;20735;-68
2024/02/26 14:49:15;;;;;;;5.53;5.00;;;12.20;99.90;;;12.99;59.36;96329.88;10350701;28;20780;-68
2024/02/26 14:54:18;;;;;;;4.93;4.43;;;12.20;99.90;;;12.84;59.54;96335.50;10352358;28;20272;-68
2024/02/26 14:59:21;;;;;;;5.20;4.70;;;12.20;99.90;;;12.70;59.57;96339.41;10350770;28;20313;-68
2024/02/26 15:04:26;;;;;;;5.10;4.60;;;12.00;99.90;;;12.61;59.39;96326.38;10350257;28;20230;-68
2024/02/26 15:09:29;;;;;;;5.28;4.78;;;11.90;99.90;;;12.62;57.61;96329.00;10349332;28;20709;-67
2024/02/26 15:14:33;;;;;;;5.88;5.28;;;11.90;99.90;;;12.39;58.46;96337.84;10349635;28;20284;-68
2024/02/26 15:19:37;;;;;;;4.57;4.18;;;11.80;99.90;;;12.37;59.43;96344.59;10348598;28;20636;-68
2024/02/26 15:24:41;;;;;;;5.60;5.10;;;11.70;99.90;;;12.32;59.36;96348.72;10351333;28;20336;-67
2024/02/26 15:29:44;;;;;;;5.15;4.05;;;11.70;99.90;;;12.40;57.09;96347.25;10348769;28;20222;-69
2024/02/26 15:34:49;;;;;;;4.38;3.92;;;11.70;99.90;;;12.21;57.38;96352.72;10347552;28;20241;-68
2024/02/26 15:39:52;;;;;;;3.80;3.50;;;11.50;99.90;;;12.16;57.83;96352.56;10347586;28;20234;-68
2024/02/26 15:44:55;;;;;;;3.65;3.35;;;11.50;99.90;;;12.09;57.95;96361.81;10346900;28;20234;-67
2024/02/26 15:50:01;;;;;;;3.00;2.80;;;11.40;99.90;;;11.79;56.85;96356.69;10344470;28;20245;-67
2024/02/26 15:55:06;;;;;;;3.00;2.80;;;11.20;99.90;;;11.84;57.88;96365.34;10347748;28;20226;-67
2024/02/26 16:00:11;;;;;;;3.65;3.35;;;11.20;99.90;;;11.86;56.52;96368.00;10346333;28;21588;-67
2024/02/26 16:05:15;;;;;;;2.90;2.70;;;11.20;99.90;;;11.82;57.38;96376.41;10348655;28;20337;-69
2024/02/26 16:10:19;;;;;;;4.00;3.17;;;11.10;99.90;;;11.83;56.71;96370.44;10348547;28;20227;-67
2024/02/26 16:15:22;;;;;;;3.60;3.30;;;11.10;99.90;;;11.60;58.31;96383.44;10347460;28;20234;-70
2024/02/26 16:20:29;;;;;;;3.63;3.30;;;10.90;99.90;;;11.57;58.76;96388.47;10348402;28;20234;-68
2024/02/26 16:25:32;;;;;;;3.50;3.10;;;10.90;99.90;;;11.50;59.32;96396.78;10352295;28;20575;-68
2024/02/26 16:30:35;;;;;;;3.70;3.40;;;10.80;99.90;;;11.40;60.27;96405.03;10354567;28;20232;-68
2024/02/26 16:35:40;;;;;;;3.80;3.50;;;10.70;99.90;;;11.29;60.52;96409.81;10350503;28;20240;-68
2024/02/26 16:40:43;;;;;;;6.88;5.93;;;10.70;99.90;;;11.24;61.07;96419.88;10346060;28;20624;-67
2024/02/26 16:45:47;;;;;;;4.38;4.07;;;10.60;99.90;;;11.20;61.08;96440.22;10343652;28;20242;-67
2024/02/26 16:50:53;;;;;;;4.82;4.43;;;10.50;99.90;;;11.12;62.00;96441.66;10345356;28;20238;-67
2024/02/26 16:55:57;;;;;;;5.13;4.30;;;10.40;99.90;;;11.35;61.97;96450.06;10342086;28;20657;-67
2024/02/26 17:01:00;;;;;;;4.47;4.07;;;10.50;99.90;;;11.07;63.60;96450.88;10334586;28;20230;-68
2024/02/26 17:06:10;;;;;;;5.50;4.97;;;10.30;99.90;;;11.08;63.10;96462.84;10340243;28;20732;-68
2024/02/26 17:11:15;;;;;;;4.90;4.53;;;10.30;99.90;;;10.98;64.90;96461.66;10341731;28;20234;-68
2024/02/26 17:16:18;;;;;;;6.13;5.53;;;10.20;99.90;;;11.06;65.32;96478.13;10346694;28;20221;-68
2024/02/26 17:21:24;;;;;;;5.25;4.75;;;10.10;99.90;;;10.99;66.46;96489.00;10349306;28;20230;-68
2024/02/26 17:26:27;;;;;;;5.85;5.32;;;10.10;99.90;;;10.74;66.88;96500.06;10346135;28;20253;-68
2024/02/26 17:31:30;;;;;;;7.53;6.82;;;10.00;99.90;;;10.66;68.16;96506.59;10348440;28;20239;-68
2024/02/26 17:36:35;;;;;;;8.25;7.53;;;9.90;99.90;;;10.60;67.96;96522.59;10347130;28;20333;-69
2024/02/26 17:41:38;;;;;;;7.13;6.53;;;9.80;99.90;;;10.54;68.55;96517.25;10348123;28;20230;-68
2024/02/26 17:46:41;;;;;;;5.57;5.07;;;9.80;99.90;;;10.48;69.36;96523.03;10340712;28;20698;-69
2024/02/26 17:51:46;;;;;;;4.90;4.50;;;9.70;99.90;;;10.45;69.78;96527.16;10340446;28;20618;-68
2024/02/26 17:56:51;;;;;;;5.38;4.88;;;9.70;99.90;;;10.42;70.54;96544.94;10349067;28;20626;-68
2024/02/26 18:01:54;;;;;;;6.88;5.70;;;9.60;99.90;;;10.34;72.67;96553.16;10352297;28;20226;-68
2024/02/26 18:07:00;;;;;;;9.70;8.15;;;9.50;99.90;;;10.24;74.06;96553.59;10350199;28;20223;-68
2024/02/26 18:12:04;;;;;;;7.72;7.03;;;9.30;99.90;;;10.11;76.38;96566.75;10350046;28;20244;-68
2024/02/26 18:17:07;;;;;;;6.80;6.20;;;9.20;99.90;;;10.18;75.17;96589.13;10357108;28;20384;-68
2024/02/26 18:22:12;;;;;;;6.00;5.03;;;9.20;99.90;;;10.01;76.42;96590.16;10355602;28;20230;-68
2024/02/26 18:27:15;;;;;;;6.13;5.63;;;9.10;99.90;;;9.93;77.51;96593.31;10352758;28;20231;-68
2024/02/26 18:32:18;;;;;;;5.45;4.97;;;9.10;99.90;;;10.15;77.65;96602.63;10354005;28;20277;-68
2024/02/26 18:37:23;;;;;;;7.72;5.13;;;9.10;99.90;;;9.86;79.76;96611.72;10356252;28;20233;-69
2024/02/26 18:42:28;;;;;;;6.38;5.82;;;9.00;99.90;;;9.73;81.98;96623.94;10352812;28;20230;-68
2024/02/26 18:47:32;;;;;;;6.72;6.13;;;8.90;99.90;;;9.59;81.49;96631.06;10351095;28;20718;-69
2024/02/26 18:52:39;;;;;;;7.90;7.20;;;8.80;99.90;;;9.54;81.02;96624.88;10350674;28;20227;-68
2024/02/26 18:57:42;;;;;;;7.38;6.75;;;8.80;99.90;;;9.55;82.68;96629.16;10355587;28;20288;-68
2024/02/26 19:02:46;;;;;;;8.60;7.80;;;8.80;99.90;;;9.56;83.45;96631.81;10352395;28;20230;-68
2024/02/26 19:07:55;;;;;;;7.80;7.10;;;8.70;99.90;;;9.50;83.19;96633.19;10353964;28;20620;-68
2024/02/26 19:12:58;;;;;;;8.60;7.80;;;8.70;99.90;;;9.52;84.12;96639.25;10350232;28;20347;-68
2024/02/26 19:18:01;;;;;;;9.40;8.50;;;8.60;99.90;;;9.44;84.70;96662.78;10343899;28;20241;-68
2024/02/26 19:23:06;;;;;;;9.68;8.70;;;8.60;99.90;;;9.44;85.11;96664.44;10337884;28;20269;-68
2024/02/26 19:28:10;;;;;;;9.25;8.45;;;8.50;99.90;;;9.22;86.45;96663.53;10333669;28;20237;-68
2024/02/26 19:33:13;;;;;;;9.93;9.02;;;8.40;99.90;;;9.22;86.84;96671.19;10342007;28;20366;-68
2024/02/26 19:38:18;;;;;;;7.35;6.20;;;8.40;99.90;;;9.22;85.97;96683.94;10340764;28;20226;-68
2024/02/26 19:43:21;;;;;;;6.50;5.95;;;8.40;99.90;;;9.12;86.32;96693.66;10340685;28;20235;-68
2024/02/26 19:48:24;;;;;;;11.90;9.48;;;8.40;99.90;;;9.14;85.49;96684.41;10345306;28;20240;-69
2024/02/26 19:53:29;;;;;;;11.25;10.15;;;8.40;99.90;;;9.16;87.11;96685.34;10346600;28;20222;-68
2024/02/26 19:58:32;;;;;;;8.13;7.40;;;8.40;99.90;;;9.16;84.50;96695.56;10341700;28;20721;-68
2024/02/26 20:03:36;;;;;;;11.75;10.10;;;8.40;99.90;;;9.40;86.45;96711.88;10345666;28;20233;-68
2024/02/26 20:08:41;;;;;;;10.38;8.85;;;8.50;99.90;;;9.10;88.17;96733.50;10345534;28;20366;-69
2024/02/26 20:13:44;;;;;;;9.63;8.80;;;8.40;99.90;;;9.08;87.52;96732.56;10348708;28;20241;-68
2024/02/26 20:18:48;;;;;;;9.93;9.02;;;8.30;99.90;;;9.13;88.95;96743.81;10343814;28;20226;-68
2024/02/26 20:23:53;;;;;;;23.05;20.55;;;8.30;99.90;;;8.93;90.70;96754.03;10342662;28;20239;-69
2024/02/26 20:28:56;;;;;;;7.30;6.70;;;8.30;99.90;;;8.83;89.83;96762.03;10343291;28;20590;-68
2024/02/26 20:34:00;;;;;;;7.23;6.27;;;8.20;99.90;;;8.80;89.87;96772.09;10343837;28;20321;-68
2024/02/26 20:39:05;;;;;;;6.40;5.90;;;8.20;99.90;;;8.61;91.30;96774.56;10341609;28;20218;-68
2024/02/26 20:44:08;;;;;;;7.83;7.03;;;8.10;99.90;;;8.65;90.19;96786.66;10343789;28;20491;-68
2024/02/26 20:49:12;;;;;;;12.27;10.03;;;8.10;99.90;;;8.74;92.39;96797.28;10346262;28;20218;-69
2024/02/26 20:54:17;;;;;;;18.37;15.40;;;8.20;99.90;;;8.38;95.64;96796.38;10343138;28;20234;-68
2024/02/26 20:59:20;;;;;;;8.43;7.63;;;8.00;99.90;;;8.29;97.17;96791.72;10343128;28;20237;-68
2024/02/26 21:04:23;;;;;;;12.23;11.03;;;7.90;99.90;;;8.24;99.47;96793.16;10338343;28;20736;-68
2024/02/26 21:09:28;;;;;;;9.53;8.63;;;7.80;99.90;;;8.17;100.00;96780.94;10335755;28;20315;-68
2024/02/26 21:14:32;;;;;;;10.53;9.57;;;7.70;99.90;;;8.26;100.00;96786.47;10338021;28;20227;-67
2024/02/26 21:19:35;;;;;;;10.83;9.83;;;7.80;99.90;;;8.26;100.00;96796.66;10338286;28;20230;-69
2024/02/26 21:24:40;;;;;;;8.60;7.50;;;7.80;99.90;;;8.26;100.00;96791.56;10334109;28;20248;-68